West Dover, VT

11:45 AM EST on December 10, 2016 (GMT -0500)
Summit Meadows | | Change Station

Elev 1818 ft 42.94 °N, 72.85 °W | Updated 26 seconds ago

Partly Cloudy
Partly Cloudy
17.1 °F
Feels Like 17 °F
N
3.0
Wind Variable Wind from WNW

Today
High -- | Low -- °F
--% Chance of Precip.
Yesterday
High -- | Low -- °F
Precip. -- in
Pressure 30.34 in
Visibility 10.0 miles
Clouds Clear
Windchill 17 °F
Dew Point 4 °F
Humidity 58%
Rainfall 0.00 in
Snow Depth Not available.
7:11 AM 4:16 PM
Waxing Gibbous, 84% visible
METAR KDDH 101554Z AUTO 29011G16KT 10SM CLR M06/M16 A3030 RMK AO2 SLP274 T10561161
Pressure 30.34 in
Visibility 10.0 miles
Clouds Clear
Windchill 17 °F
Dew Point 4 °F
Humidity 58%
Rainfall 0.00 in
Snow Depth Not available.
7:11 AM 4:16 PM
Waxing Gibbous, 84% visible
METAR KDDH 101554Z AUTO 29011G16KT 10SM CLR M06/M16 A3030 RMK AO2 SLP274 T10561161

10-Day Weather Forecast

Almanac

Astronomy

Dec. 10, 2016 Rise Set
Actual Time
Civil Twilight
Nautical Twilight
Astronomical Twilight
Moon
Length of Visible Light
Length of Day
Tomorrow will be .
, % of the Moon is Illuminated

Today's Extremes

State Highs State Lows

Community

WunderPhotos

Upload Photos

1,956,569 photos uploaded!

WunderBlog® & News

Nearby

Air Quality

  Air Quality AQ Index Pollutant
Not available.

Snow Depth

Station Depth Elevation

Earthquake Activity

City Distance Mag. Time & Date
Minimum magnitude displayed is 2.5.

Coastal Water Temperatures

Place Temperature

Stations

Nearby Weather Stations

Station Location Temp. Windchill Dew Point Humidity Wind Precip. Elev Updated Type
                   

Watches & Warnings

There are currently no watches in effect.